<?xml version="1.0" encoding="UTF-8" standalone="no" ?>
<gpx xmlns="http://www.topografix.com/GPX/1/1" xmlns:xsi="http://www.w3.org/2001/XMLSchema-instance" xsi:schemaLocation="http://www.topografix.com/GPX/1/1 http://www.topografix.com/GPX/1/1/gpx.xsd" version="1.1" creator="VisuGPX - https://www.visugpx.com">
  <metadata>
    <name>autour de st alban par lucie 11.5 kms</name>
    <desc><![CDATA[fait par lucie un soir]]></desc>
  </metadata>
  <trk>
    <name><![CDATA[ACTIVE LOG172124]]></name>
    <trkseg>
      <trkpt lat="45.19338" lon="4.64848">
        <ele>447.473</ele>
        <time>2013-03-21T16:21:24Z</time>
      </trkpt>
      <trkpt lat="45.19338" lon="4.64845">
        <ele>446.774</ele>
        <time>2013-03-21T16:21:26Z</time>
      </trkpt>
      <trkpt lat="45.19338" lon="4.64854">
        <ele>441.329</ele>
        <time>2013-03-21T16:21:41Z</time>
      </trkpt>
      <trkpt lat="45.19339" lon="4.6486">
        <ele>442.908</ele>
        <time>2013-03-21T16:22:51Z</time>
      </trkpt>
      <trkpt lat="45.19347" lon="4.64862">
        <ele>444.575</ele>
        <time>2013-03-21T16:22:58Z</time>
      </trkpt>
      <trkpt lat="45.19344" lon="4.64861">
        <ele>444.855</ele>
        <time>2013-03-21T16:23:01Z</time>
      </trkpt>
      <trkpt lat="45.1934" lon="4.64863">
        <ele>444.365</ele>
        <time>2013-03-21T16:23:12Z</time>
      </trkpt>
      <trkpt lat="45.1934" lon="4.6486">
        <ele>445.983</ele>
        <time>2013-03-21T16:23:23Z</time>
      </trkpt>
      <trkpt lat="45.1934" lon="4.6486">
        <ele>445.816</ele>
        <time>2013-03-21T16:23:34Z</time>
      </trkpt>
      <trkpt lat="45.19337" lon="4.64856">
        <ele>444.455</ele>
        <time>2013-03-21T16:23:47Z</time>
      </trkpt>
      <trkpt lat="45.19337" lon="4.64857">
        <ele>444.163</ele>
        <time>2013-03-21T16:23:52Z</time>
      </trkpt>
      <trkpt lat="45.1934" lon="4.6486">
        <ele>443.813</ele>
        <time>2013-03-21T16:24:03Z</time>
      </trkpt>
      <trkpt lat="45.1934" lon="4.6486">
        <ele>443.317</ele>
        <time>2013-03-21T16:24:45Z</time>
      </trkpt>
      <trkpt lat="45.1934" lon="4.6486">
        <ele>443.294</ele>
        <time>2013-03-21T16:25:27Z</time>
      </trkpt>
      <trkpt lat="45.19341" lon="4.64864">
        <ele>443.644</ele>
        <time>2013-03-21T16:26:45Z</time>
      </trkpt>
      <trkpt lat="45.1934" lon="4.64864">
        <ele>444.258</ele>
        <time>2013-03-21T16:27:16Z</time>
      </trkpt>
      <trkpt lat="45.1934" lon="4.64863">
        <ele>445.36</ele>
        <time>2013-03-21T16:28:11Z</time>
      </trkpt>
      <trkpt lat="45.19341" lon="4.64865">
        <ele>446.266</ele>
        <time>2013-03-21T16:29:28Z</time>
      </trkpt>
      <trkpt lat="45.19341" lon="4.64865">
        <ele>446.503</ele>
        <time>2013-03-21T16:30:02Z</time>
      </trkpt>
      <trkpt lat="45.19347" lon="4.64847">
        <ele>450.766</ele>
        <time>2013-03-21T16:30:21Z</time>
      </trkpt>
      <trkpt lat="45.19346" lon="4.64845">
        <ele>452.24</ele>
        <time>2013-03-21T16:30:42Z</time>
      </trkpt>
      <trkpt lat="45.19347" lon="4.64842">
        <ele>452.193</ele>
        <time>2013-03-21T16:38:57Z</time>
      </trkpt>
      <trkpt lat="45.19347" lon="4.64841">
        <ele>452.071</ele>
        <time>2013-03-21T16:38:58Z</time>
      </trkpt>
      <trkpt lat="45.19351" lon="4.64838">
        <ele>451.77</ele>
        <time>2013-03-21T16:39:01Z</time>
      </trkpt>
      <trkpt lat="45.19385" lon="4.64843">
        <ele>451.802</ele>
        <time>2013-03-21T16:39:18Z</time>
      </trkpt>
      <trkpt lat="45.19414" lon="4.64847">
        <ele>452.336</ele>
        <time>2013-03-21T16:39:33Z</time>
      </trkpt>
      <trkpt lat="45.19418" lon="4.64841">
        <ele>452.781</ele>
        <time>2013-03-21T16:39:43Z</time>
      </trkpt>
      <trkpt lat="45.19415" lon="4.64831">
        <ele>453.098</ele>
        <time>2013-03-21T16:39:48Z</time>
      </trkpt>
      <trkpt lat="45.19401" lon="4.6479">
        <ele>454.543</ele>
        <time>2013-03-21T16:40:04Z</time>
      </trkpt>
      <trkpt lat="45.19393" lon="4.64752">
        <ele>455.925</ele>
        <time>2013-03-21T16:40:18Z</time>
      </trkpt>
      <trkpt lat="45.1939" lon="4.64697">
        <ele>459.165</ele>
        <time>2013-03-21T16:40:36Z</time>
      </trkpt>
      <trkpt lat="45.1939" lon="4.64638">
        <ele>461.656</ele>
        <time>2013-03-21T16:40:55Z</time>
      </trkpt>
      <trkpt lat="45.19387" lon="4.646">
        <ele>464.278</ele>
        <time>2013-03-21T16:41:08Z</time>
      </trkpt>
      <trkpt lat="45.19392" lon="4.64595">
        <ele>465.221</ele>
        <time>2013-03-21T16:41:12Z</time>
      </trkpt>
      <trkpt lat="45.19401" lon="4.64596">
        <ele>463.66</ele>
        <time>2013-03-21T16:41:25Z</time>
      </trkpt>
      <trkpt lat="45.19401" lon="4.64597">
        <ele>463.897</ele>
        <time>2013-03-21T16:42:18Z</time>
      </trkpt>
      <trkpt lat="45.19402" lon="4.64598">
        <ele>464.096</ele>
        <time>2013-03-21T16:42:55Z</time>
      </trkpt>
      <trkpt lat="45.19425" lon="4.64611">
        <ele>464.418</ele>
        <time>2013-03-21T16:43:04Z</time>
      </trkpt>
      <trkpt lat="45.19491" lon="4.64644">
        <ele>465.263</ele>
        <time>2013-03-21T16:43:22Z</time>
      </trkpt>
      <trkpt lat="45.19563" lon="4.64688">
        <ele>466.431</ele>
        <time>2013-03-21T16:43:44Z</time>
      </trkpt>
      <trkpt lat="45.19613" lon="4.64728">
        <ele>467.432</ele>
        <time>2013-03-21T16:44:02Z</time>
      </trkpt>
      <trkpt lat="45.19665" lon="4.64758">
        <ele>467.546</ele>
        <time>2013-03-21T16:44:19Z</time>
      </trkpt>
      <trkpt lat="45.19717" lon="4.64792">
        <ele>466.555</ele>
        <time>2013-03-21T16:44:37Z</time>
      </trkpt>
      <trkpt lat="45.19756" lon="4.64824">
        <ele>465.023</ele>
        <time>2013-03-21T16:44:50Z</time>
      </trkpt>
      <trkpt lat="45.19799" lon="4.64853">
        <ele>465.599</ele>
        <time>2013-03-21T16:45:04Z</time>
      </trkpt>
      <trkpt lat="45.19841" lon="4.64876">
        <ele>465.9</ele>
        <time>2013-03-21T16:45:18Z</time>
      </trkpt>
      <trkpt lat="45.19876" lon="4.649">
        <ele>465.576</ele>
        <time>2013-03-21T16:45:30Z</time>
      </trkpt>
      <trkpt lat="45.19905" lon="4.64911">
        <ele>466.261</ele>
        <time>2013-03-21T16:45:41Z</time>
      </trkpt>
      <trkpt lat="45.19906" lon="4.64911">
        <ele>466.292</ele>
        <time>2013-03-21T16:45:50Z</time>
      </trkpt>
      <trkpt lat="45.19908" lon="4.64912">
        <ele>466.377</ele>
        <time>2013-03-21T16:46:19Z</time>
      </trkpt>
      <trkpt lat="45.19912" lon="4.64913">
        <ele>466.42</ele>
        <time>2013-03-21T16:46:22Z</time>
      </trkpt>
      <trkpt lat="45.19938" lon="4.64924">
        <ele>466.525</ele>
        <time>2013-03-21T16:46:34Z</time>
      </trkpt>
      <trkpt lat="45.19968" lon="4.64941">
        <ele>467.684</ele>
        <time>2013-03-21T16:46:45Z</time>
      </trkpt>
      <trkpt lat="45.20008" lon="4.64961">
        <ele>467.818</ele>
        <time>2013-03-21T16:46:59Z</time>
      </trkpt>
      <trkpt lat="45.20046" lon="4.64978">
        <ele>468.902</ele>
        <time>2013-03-21T16:47:14Z</time>
      </trkpt>
      <trkpt lat="45.20075" lon="4.64995">
        <ele>467.822</ele>
        <time>2013-03-21T16:47:26Z</time>
      </trkpt>
      <trkpt lat="45.20113" lon="4.65017">
        <ele>468.797</ele>
        <time>2013-03-21T16:47:41Z</time>
      </trkpt>
      <trkpt lat="45.20146" lon="4.6502">
        <ele>467.925</ele>
        <time>2013-03-21T16:47:54Z</time>
      </trkpt>
      <trkpt lat="45.20188" lon="4.65021">
        <ele>467.184</ele>
        <time>2013-03-21T16:48:09Z</time>
      </trkpt>
      <trkpt lat="45.20215" lon="4.65027">
        <ele>464.529</ele>
        <time>2013-03-21T16:48:19Z</time>
      </trkpt>
      <trkpt lat="45.20244" lon="4.65039">
        <ele>461.509</ele>
        <time>2013-03-21T16:48:29Z</time>
      </trkpt>
      <trkpt lat="45.20255" lon="4.65044">
        <ele>460.891</ele>
        <time>2013-03-21T16:48:32Z</time>
      </trkpt>
      <trkpt lat="45.20298" lon="4.65067">
        <ele>458.408</ele>
        <time>2013-03-21T16:48:43Z</time>
      </trkpt>
      <trkpt lat="45.20344" lon="4.65093">
        <ele>456.825</ele>
        <time>2013-03-21T16:48:56Z</time>
      </trkpt>
      <trkpt lat="45.20389" lon="4.65118">
        <ele>455.972</ele>
        <time>2013-03-21T16:49:10Z</time>
      </trkpt>
      <trkpt lat="45.20431" lon="4.65136">
        <ele>453.175</ele>
        <time>2013-03-21T16:49:23Z</time>
      </trkpt>
      <trkpt lat="45.20462" lon="4.65132">
        <ele>452.563</ele>
        <time>2013-03-21T16:49:33Z</time>
      </trkpt>
      <trkpt lat="45.20487" lon="4.65118">
        <ele>452.806</ele>
        <time>2013-03-21T16:49:44Z</time>
      </trkpt>
      <trkpt lat="45.2052" lon="4.65088">
        <ele>454.862</ele>
        <time>2013-03-21T16:50:01Z</time>
      </trkpt>
      <trkpt lat="45.20548" lon="4.65074">
        <ele>455.484</ele>
        <time>2013-03-21T16:50:14Z</time>
      </trkpt>
      <trkpt lat="45.20603" lon="4.65063">
        <ele>452.807</ele>
        <time>2013-03-21T16:50:31Z</time>
      </trkpt>
      <trkpt lat="45.20645" lon="4.6505">
        <ele>452.901</ele>
        <time>2013-03-21T16:50:47Z</time>
      </trkpt>
      <trkpt lat="45.20686" lon="4.65053">
        <ele>452.443</ele>
        <time>2013-03-21T16:51:02Z</time>
      </trkpt>
      <trkpt lat="45.20726" lon="4.6507">
        <ele>450.832</ele>
        <time>2013-03-21T16:51:16Z</time>
      </trkpt>
      <trkpt lat="45.20759" lon="4.65079">
        <ele>450.34</ele>
        <time>2013-03-21T16:51:25Z</time>
      </trkpt>
      <trkpt lat="45.20762" lon="4.65078">
        <ele>450.39</ele>
        <time>2013-03-21T16:51:27Z</time>
      </trkpt>
      <trkpt lat="45.20765" lon="4.65077">
        <ele>450.596</ele>
        <time>2013-03-21T16:51:30Z</time>
      </trkpt>
      <trkpt lat="45.20758" lon="4.65065">
        <ele>450.317</ele>
        <time>2013-03-21T16:51:38Z</time>
      </trkpt>
      <trkpt lat="45.20751" lon="4.65056">
        <ele>451.812</ele>
        <time>2013-03-21T16:51:48Z</time>
      </trkpt>
      <trkpt lat="45.20751" lon="4.65056">
        <ele>452.433</ele>
        <time>2013-03-21T16:52:01Z</time>
      </trkpt>
      <trkpt lat="45.20729" lon="4.65034">
        <ele>453.369</ele>
        <time>2013-03-21T16:53:12Z</time>
      </trkpt>
      <trkpt lat="45.20709" lon="4.65013">
        <ele>455.391</ele>
        <time>2013-03-21T16:53:28Z</time>
      </trkpt>
      <trkpt lat="45.20691" lon="4.64994">
        <ele>456.745</ele>
        <time>2013-03-21T16:53:45Z</time>
      </trkpt>
      <trkpt lat="45.20682" lon="4.64981">
        <ele>458.924</ele>
        <time>2013-03-21T16:53:58Z</time>
      </trkpt>
      <trkpt lat="45.20682" lon="4.64981">
        <ele>460.646</ele>
        <time>2013-03-21T16:54:09Z</time>
      </trkpt>
      <trkpt lat="45.20682" lon="4.64981">
        <ele>461.009</ele>
        <time>2013-03-21T16:54:12Z</time>
      </trkpt>
      <trkpt lat="45.20668" lon="4.64957">
        <ele>462.091</ele>
        <time>2013-03-21T16:54:16Z</time>
      </trkpt>
      <trkpt lat="45.20659" lon="4.64939">
        <ele>465.832</ele>
        <time>2013-03-21T16:54:28Z</time>
      </trkpt>
      <trkpt lat="45.20652" lon="4.64918">
        <ele>468.431</ele>
        <time>2013-03-21T16:54:41Z</time>
      </trkpt>
      <trkpt lat="45.2065" lon="4.64901">
        <ele>469.926</ele>
        <time>2013-03-21T16:54:54Z</time>
      </trkpt>
      <trkpt lat="45.20652" lon="4.64881">
        <ele>471.963</ele>
        <time>2013-03-21T16:55:07Z</time>
      </trkpt>
      <trkpt lat="45.20658" lon="4.64858">
        <ele>474.288</ele>
        <time>2013-03-21T16:55:24Z</time>
      </trkpt>
      <trkpt lat="45.20662" lon="4.64847">
        <ele>473.877</ele>
        <time>2013-03-21T16:55:36Z</time>
      </trkpt>
      <trkpt lat="45.20662" lon="4.64847">
        <ele>471.016</ele>
        <time>2013-03-21T16:55:48Z</time>
      </trkpt>
      <trkpt lat="45.20662" lon="4.64847">
        <ele>471.541</ele>
        <time>2013-03-21T16:55:53Z</time>
      </trkpt>
      <trkpt lat="45.20662" lon="4.64847">
        <ele>471.404</ele>
        <time>2013-03-21T16:56:04Z</time>
      </trkpt>
      <trkpt lat="45.20662" lon="4.64847">
        <ele>471.319</ele>
        <time>2013-03-21T16:56:11Z</time>
      </trkpt>
      <trkpt lat="45.20662" lon="4.64847">
        <ele>473.813</ele>
        <time>2013-03-21T16:56:26Z</time>
      </trkpt>
      <trkpt lat="45.20662" lon="4.64847">
        <ele>475.443</ele>
        <time>2013-03-21T16:56:37Z</time>
      </trkpt>
      <trkpt lat="45.20662" lon="4.64847">
        <ele>475.605</ele>
        <time>2013-03-21T16:56:38Z</time>
      </trkpt>
      <trkpt lat="45.20662" lon="4.64847">
        <ele>476.489</ele>
        <time>2013-03-21T16:56:49Z</time>
      </trkpt>
      <trkpt lat="45.20662" lon="4.64847">
        <ele>476.877</ele>
        <time>2013-03-21T16:56:52Z</time>
      </trkpt>
      <trkpt lat="45.20726" lon="4.64754">
        <ele>478.317</ele>
        <time>2013-03-21T16:57:07Z</time>
      </trkpt>
      <trkpt lat="45.20734" lon="4.64748">
        <ele>478.294</ele>
        <time>2013-03-21T16:57:14Z</time>
      </trkpt>
      <trkpt lat="45.20759" lon="4.6473">
        <ele>480.273</ele>
        <time>2013-03-21T16:57:34Z</time>
      </trkpt>
      <trkpt lat="45.20761" lon="4.64728">
        <ele>480.551</ele>
        <time>2013-03-21T16:57:36Z</time>
      </trkpt>
      <trkpt lat="45.20781" lon="4.64713">
        <ele>482.927</ele>
        <time>2013-03-21T16:57:52Z</time>
      </trkpt>
      <trkpt lat="45.20797" lon="4.64698">
        <ele>483.8</ele>
        <time>2013-03-21T16:58:05Z</time>
      </trkpt>
      <trkpt lat="45.20814" lon="4.64679">
        <ele>483.068</ele>
        <time>2013-03-21T16:58:20Z</time>
      </trkpt>
      <trkpt lat="45.20831" lon="4.64653">
        <ele>481.819</ele>
        <time>2013-03-21T16:58:34Z</time>
      </trkpt>
      <trkpt lat="45.2085" lon="4.64622">
        <ele>482.671</ele>
        <time>2013-03-21T16:58:50Z</time>
      </trkpt>
      <trkpt lat="45.20859" lon="4.64609">
        <ele>483.262</ele>
        <time>2013-03-21T16:58:56Z</time>
      </trkpt>
      <trkpt lat="45.20878" lon="4.64575">
        <ele>483.807</ele>
        <time>2013-03-21T16:59:13Z</time>
      </trkpt>
      <trkpt lat="45.20887" lon="4.64542">
        <ele>488.171</ele>
        <time>2013-03-21T16:59:28Z</time>
      </trkpt>
      <trkpt lat="45.20885" lon="4.64527">
        <ele>488.852</ele>
        <time>2013-03-21T16:59:37Z</time>
      </trkpt>
      <trkpt lat="45.20883" lon="4.64518">
        <ele>490.604</ele>
        <time>2013-03-21T16:59:41Z</time>
      </trkpt>
      <trkpt lat="45.20882" lon="4.64511">
        <ele>491.637</ele>
        <time>2013-03-21T16:59:50Z</time>
      </trkpt>
      <trkpt lat="45.20877" lon="4.64499">
        <ele>491.351</ele>
        <time>2013-03-21T16:59:53Z</time>
      </trkpt>
      <trkpt lat="45.20877" lon="4.64499">
        <ele>492.969</ele>
        <time>2013-03-21T17:00:07Z</time>
      </trkpt>
      <trkpt lat="45.20877" lon="4.64499">
        <ele>495.081</ele>
        <time>2013-03-21T17:00:22Z</time>
      </trkpt>
      <trkpt lat="45.20877" lon="4.64499">
        <ele>496.396</ele>
        <time>2013-03-21T17:00:37Z</time>
      </trkpt>
      <trkpt lat="45.20877" lon="4.64499">
        <ele>497.935</ele>
        <time>2013-03-21T17:00:53Z</time>
      </trkpt>
      <trkpt lat="45.20877" lon="4.64499">
        <ele>499.718</ele>
        <time>2013-03-21T17:01:08Z</time>
      </trkpt>
      <trkpt lat="45.20877" lon="4.64499">
        <ele>501.378</ele>
        <time>2013-03-21T17:01:23Z</time>
      </trkpt>
      <trkpt lat="45.20847" lon="4.64355">
        <ele>503.081</ele>
        <time>2013-03-21T17:01:38Z</time>
      </trkpt>
      <trkpt lat="45.20847" lon="4.64355">
        <ele>503.075</ele>
        <time>2013-03-21T17:01:41Z</time>
      </trkpt>
      <trkpt lat="45.2084" lon="4.64342">
        <ele>503.043</ele>
        <time>2013-03-21T17:01:49Z</time>
      </trkpt>
      <trkpt lat="45.2084" lon="4.64342">
        <ele>503.468</ele>
        <time>2013-03-21T17:01:51Z</time>
      </trkpt>
      <trkpt lat="45.2083" lon="4.64324">
        <ele>505.265</ele>
        <time>2013-03-21T17:02:06Z</time>
      </trkpt>
      <trkpt lat="45.2083" lon="4.64324">
        <ele>505.421</ele>
        <time>2013-03-21T17:02:07Z</time>
      </trkpt>
      <trkpt lat="45.20817" lon="4.64299">
        <ele>507.967</ele>
        <time>2013-03-21T17:02:20Z</time>
      </trkpt>
      <trkpt lat="45.20812" lon="4.64289">
        <ele>510.542</ele>
        <time>2013-03-21T17:02:36Z</time>
      </trkpt>
      <trkpt lat="45.20812" lon="4.64289">
        <ele>511.881</ele>
        <time>2013-03-21T17:02:50Z</time>
      </trkpt>
      <trkpt lat="45.20812" lon="4.64289">
        <ele>512.111</ele>
        <time>2013-03-21T17:03:20Z</time>
      </trkpt>
      <trkpt lat="45.208" lon="4.64262">
        <ele>511.654</ele>
        <time>2013-03-21T17:04:32Z</time>
      </trkpt>
      <trkpt lat="45.20794" lon="4.64251">
        <ele>513.826</ele>
        <time>2013-03-21T17:04:45Z</time>
      </trkpt>
      <trkpt lat="45.20794" lon="4.64251">
        <ele>514.882</ele>
        <time>2013-03-21T17:05:03Z</time>
      </trkpt>
      <trkpt lat="45.20794" lon="4.64251">
        <ele>514.943</ele>
        <time>2013-03-21T17:05:20Z</time>
      </trkpt>
      <trkpt lat="45.2076" lon="4.64184">
        <ele>515.761</ele>
        <time>2013-03-21T17:05:35Z</time>
      </trkpt>
      <trkpt lat="45.20745" lon="4.64154">
        <ele>516.851</ele>
        <time>2013-03-21T17:05:55Z</time>
      </trkpt>
      <trkpt lat="45.20737" lon="4.64142">
        <ele>518.063</ele>
        <time>2013-03-21T17:06:08Z</time>
      </trkpt>
      <trkpt lat="45.20728" lon="4.6413">
        <ele>517.909</ele>
        <time>2013-03-21T17:06:20Z</time>
      </trkpt>
      <trkpt lat="45.2072" lon="4.64123">
        <ele>518.34</ele>
        <time>2013-03-21T17:06:28Z</time>
      </trkpt>
      <trkpt lat="45.2072" lon="4.64123">
        <ele>519.297</ele>
        <time>2013-03-21T17:06:41Z</time>
      </trkpt>
      <trkpt lat="45.20697" lon="4.64115">
        <ele>521.473</ele>
        <time>2013-03-21T17:06:54Z</time>
      </trkpt>
      <trkpt lat="45.20686" lon="4.64113">
        <ele>522.651</ele>
        <time>2013-03-21T17:07:08Z</time>
      </trkpt>
      <trkpt lat="45.2067" lon="4.6411">
        <ele>523.112</ele>
        <time>2013-03-21T17:07:18Z</time>
      </trkpt>
      <trkpt lat="45.20663" lon="4.64109">
        <ele>523.541</ele>
        <time>2013-03-21T17:07:23Z</time>
      </trkpt>
      <trkpt lat="45.20653" lon="4.64106">
        <ele>525.004</ele>
        <time>2013-03-21T17:07:43Z</time>
      </trkpt>
      <trkpt lat="45.20653" lon="4.64106">
        <ele>525.194</ele>
        <time>2013-03-21T17:07:44Z</time>
      </trkpt>
      <trkpt lat="45.20634" lon="4.64084">
        <ele>525.451</ele>
        <time>2013-03-21T17:07:50Z</time>
      </trkpt>
      <trkpt lat="45.20634" lon="4.64084">
        <ele>525.568</ele>
        <time>2013-03-21T17:08:07Z</time>
      </trkpt>
      <trkpt lat="45.20613" lon="4.64052">
        <ele>527.541</ele>
        <time>2013-03-21T17:08:21Z</time>
      </trkpt>
      <trkpt lat="45.20602" lon="4.64024">
        <ele>530.179</ele>
        <time>2013-03-21T17:08:34Z</time>
      </trkpt>
      <trkpt lat="45.20597" lon="4.64005">
        <ele>530.166</ele>
        <time>2013-03-21T17:08:45Z</time>
      </trkpt>
      <trkpt lat="45.20597" lon="4.64005">
        <ele>530.502</ele>
        <time>2013-03-21T17:08:51Z</time>
      </trkpt>
      <trkpt lat="45.20595" lon="4.63995">
        <ele>530.773</ele>
        <time>2013-03-21T17:08:55Z</time>
      </trkpt>
      <trkpt lat="45.20588" lon="4.6397">
        <ele>533.236</ele>
        <time>2013-03-21T17:09:06Z</time>
      </trkpt>
      <trkpt lat="45.20578" lon="4.63946">
        <ele>534.733</ele>
        <time>2013-03-21T17:09:19Z</time>
      </trkpt>
      <trkpt lat="45.2057" lon="4.63933">
        <ele>535.733</ele>
        <time>2013-03-21T17:09:34Z</time>
      </trkpt>
      <trkpt lat="45.20552" lon="4.63905">
        <ele>535.402</ele>
        <time>2013-03-21T17:09:50Z</time>
      </trkpt>
      <trkpt lat="45.20534" lon="4.63879">
        <ele>536.213</ele>
        <time>2013-03-21T17:10:08Z</time>
      </trkpt>
      <trkpt lat="45.20521" lon="4.6386">
        <ele>537.178</ele>
        <time>2013-03-21T17:10:21Z</time>
      </trkpt>
      <trkpt lat="45.20517" lon="4.63853">
        <ele>537.474</ele>
        <time>2013-03-21T17:10:34Z</time>
      </trkpt>
      <trkpt lat="45.20503" lon="4.63826">
        <ele>538.168</ele>
        <time>2013-03-21T17:10:47Z</time>
      </trkpt>
      <trkpt lat="45.20502" lon="4.63824">
        <ele>538.049</ele>
        <time>2013-03-21T17:10:52Z</time>
      </trkpt>
      <trkpt lat="45.20498" lon="4.63818">
        <ele>538.125</ele>
        <time>2013-03-21T17:10:57Z</time>
      </trkpt>
      <trkpt lat="45.20484" lon="4.6379">
        <ele>539.972</ele>
        <time>2013-03-21T17:11:12Z</time>
      </trkpt>
      <trkpt lat="45.20477" lon="4.63768">
        <ele>540.265</ele>
        <time>2013-03-21T17:11:26Z</time>
      </trkpt>
      <trkpt lat="45.20472" lon="4.63754">
        <ele>541.143</ele>
        <time>2013-03-21T17:11:39Z</time>
      </trkpt>
      <trkpt lat="45.20465" lon="4.63741">
        <ele>540.111</ele>
        <time>2013-03-21T17:11:55Z</time>
      </trkpt>
      <trkpt lat="45.20447" lon="4.6371">
        <ele>542.113</ele>
        <time>2013-03-21T17:12:08Z</time>
      </trkpt>
      <trkpt lat="45.20435" lon="4.63689">
        <ele>542.4</ele>
        <time>2013-03-21T17:12:21Z</time>
      </trkpt>
      <trkpt lat="45.2042" lon="4.63664">
        <ele>544.658</ele>
        <time>2013-03-21T17:12:36Z</time>
      </trkpt>
      <trkpt lat="45.20408" lon="4.63646">
        <ele>545.594</ele>
        <time>2013-03-21T17:12:49Z</time>
      </trkpt>
      <trkpt lat="45.20402" lon="4.63637">
        <ele>547.558</ele>
        <time>2013-03-21T17:13:03Z</time>
      </trkpt>
      <trkpt lat="45.20402" lon="4.63637">
        <ele>546.76</ele>
        <time>2013-03-21T17:13:10Z</time>
      </trkpt>
      <trkpt lat="45.20384" lon="4.63613">
        <ele>547.343</ele>
        <time>2013-03-21T17:13:17Z</time>
      </trkpt>
      <trkpt lat="45.20381" lon="4.63611">
        <ele>547.902</ele>
        <time>2013-03-21T17:13:23Z</time>
      </trkpt>
      <trkpt lat="45.20367" lon="4.63595">
        <ele>551.169</ele>
        <time>2013-03-21T17:13:39Z</time>
      </trkpt>
      <trkpt lat="45.20361" lon="4.63589">
        <ele>551.563</ele>
        <time>2013-03-21T17:13:43Z</time>
      </trkpt>
      <trkpt lat="45.20343" lon="4.63576">
        <ele>552.869</ele>
        <time>2013-03-21T17:13:58Z</time>
      </trkpt>
      <trkpt lat="45.20343" lon="4.63576">
        <ele>555.434</ele>
        <time>2013-03-21T17:14:13Z</time>
      </trkpt>
      <trkpt lat="45.20319" lon="4.63556">
        <ele>555.164</ele>
        <time>2013-03-21T17:14:24Z</time>
      </trkpt>
      <trkpt lat="45.20314" lon="4.63551">
        <ele>555.377</ele>
        <time>2013-03-21T17:14:28Z</time>
      </trkpt>
      <trkpt lat="45.20298" lon="4.63537">
        <ele>557.59</ele>
        <time>2013-03-21T17:14:43Z</time>
      </trkpt>
      <trkpt lat="45.20291" lon="4.6353">
        <ele>558.562</ele>
        <time>2013-03-21T17:14:51Z</time>
      </trkpt>
      <trkpt lat="45.2028" lon="4.6352">
        <ele>559.926</ele>
        <time>2013-03-21T17:15:04Z</time>
      </trkpt>
      <trkpt lat="45.20276" lon="4.63517">
        <ele>560.363</ele>
        <time>2013-03-21T17:15:08Z</time>
      </trkpt>
      <trkpt lat="45.20272" lon="4.63511">
        <ele>560.396</ele>
        <time>2013-03-21T17:15:11Z</time>
      </trkpt>
      <trkpt lat="45.20267" lon="4.63505">
        <ele>559.953</ele>
        <time>2013-03-21T17:15:15Z</time>
      </trkpt>
      <trkpt lat="45.20266" lon="4.63504">
        <ele>559.794</ele>
        <time>2013-03-21T17:15:17Z</time>
      </trkpt>
      <trkpt lat="45.20254" lon="4.63488">
        <ele>561.921</ele>
        <time>2013-03-21T17:15:30Z</time>
      </trkpt>
      <trkpt lat="45.20241" lon="4.63471">
        <ele>562.921</ele>
        <time>2013-03-21T17:15:43Z</time>
      </trkpt>
      <trkpt lat="45.20221" lon="4.63457">
        <ele>565.568</ele>
        <time>2013-03-21T17:15:57Z</time>
      </trkpt>
      <trkpt lat="45.20201" lon="4.63454">
        <ele>569.522</ele>
        <time>2013-03-21T17:16:13Z</time>
      </trkpt>
      <trkpt lat="45.20194" lon="4.63453">
        <ele>570.703</ele>
        <time>2013-03-21T17:16:18Z</time>
      </trkpt>
      <trkpt lat="45.20194" lon="4.63453">
        <ele>571.103</ele>
        <time>2013-03-21T17:16:33Z</time>
      </trkpt>
      <trkpt lat="45.20194" lon="4.63453">
        <ele>571.679</ele>
        <time>2013-03-21T17:20:04Z</time>
      </trkpt>
      <trkpt lat="45.20179" lon="4.63453">
        <ele>572.871</ele>
        <time>2013-03-21T17:20:22Z</time>
      </trkpt>
      <trkpt lat="45.20156" lon="4.63451">
        <ele>574.081</ele>
        <time>2013-03-21T17:20:39Z</time>
      </trkpt>
      <trkpt lat="45.2014" lon="4.63449">
        <ele>573.913</ele>
        <time>2013-03-21T17:20:50Z</time>
      </trkpt>
      <trkpt lat="45.20115" lon="4.63449">
        <ele>573.94</ele>
        <time>2013-03-21T17:21:06Z</time>
      </trkpt>
      <trkpt lat="45.20097" lon="4.63453">
        <ele>573.964</ele>
        <time>2013-03-21T17:21:18Z</time>
      </trkpt>
      <trkpt lat="45.20092" lon="4.63463">
        <ele>574.063</ele>
        <time>2013-03-21T17:21:24Z</time>
      </trkpt>
      <trkpt lat="45.20092" lon="4.63463">
        <ele>574.682</ele>
        <time>2013-03-21T17:21:26Z</time>
      </trkpt>
      <trkpt lat="45.20092" lon="4.63463">
        <ele>575.419</ele>
        <time>2013-03-21T17:21:32Z</time>
      </trkpt>
      <trkpt lat="45.2012" lon="4.63466">
        <ele>576.394</ele>
        <time>2013-03-21T17:21:48Z</time>
      </trkpt>
      <trkpt lat="45.20142" lon="4.63469">
        <ele>577.724</ele>
        <time>2013-03-21T17:22:02Z</time>
      </trkpt>
      <trkpt lat="45.20164" lon="4.63478">
        <ele>580.637</ele>
        <time>2013-03-21T17:22:19Z</time>
      </trkpt>
      <trkpt lat="45.20181" lon="4.63493">
        <ele>583.512</ele>
        <time>2013-03-21T17:22:34Z</time>
      </trkpt>
      <trkpt lat="45.20195" lon="4.63516">
        <ele>584.438</ele>
        <time>2013-03-21T17:22:50Z</time>
      </trkpt>
      <trkpt lat="45.20203" lon="4.63539">
        <ele>584.386</ele>
        <time>2013-03-21T17:23:05Z</time>
      </trkpt>
      <trkpt lat="45.20205" lon="4.63546">
        <ele>583.136</ele>
        <time>2013-03-21T17:23:10Z</time>
      </trkpt>
      <trkpt lat="45.20209" lon="4.63558">
        <ele>582.848</ele>
        <time>2013-03-21T17:23:20Z</time>
      </trkpt>
      <trkpt lat="45.20212" lon="4.63567">
        <ele>583.887</ele>
        <time>2013-03-21T17:23:25Z</time>
      </trkpt>
      <trkpt lat="45.20218" lon="4.63587">
        <ele>584.634</ele>
        <time>2013-03-21T17:23:38Z</time>
      </trkpt>
      <trkpt lat="45.20226" lon="4.6361">
        <ele>587.704</ele>
        <time>2013-03-21T17:23:51Z</time>
      </trkpt>
      <trkpt lat="45.20227" lon="4.63614">
        <ele>589.571</ele>
        <time>2013-03-21T17:24:02Z</time>
      </trkpt>
      <trkpt lat="45.20227" lon="4.63614">
        <ele>590.388</ele>
        <time>2013-03-21T17:24:12Z</time>
      </trkpt>
      <trkpt lat="45.20241" lon="4.6365">
        <ele>591.769</ele>
        <time>2013-03-21T17:24:25Z</time>
      </trkpt>
      <trkpt lat="45.20246" lon="4.63663">
        <ele>592.834</ele>
        <time>2013-03-21T17:24:34Z</time>
      </trkpt>
      <trkpt lat="45.20253" lon="4.63685">
        <ele>593.103</ele>
        <time>2013-03-21T17:24:50Z</time>
      </trkpt>
      <trkpt lat="45.20266" lon="4.63714">
        <ele>595.023</ele>
        <time>2013-03-21T17:25:05Z</time>
      </trkpt>
      <trkpt lat="45.20279" lon="4.6374">
        <ele>596.849</ele>
        <time>2013-03-21T17:25:20Z</time>
      </trkpt>
      <trkpt lat="45.20288" lon="4.63762">
        <ele>598.098</ele>
        <time>2013-03-21T17:25:35Z</time>
      </trkpt>
      <trkpt lat="45.2029" lon="4.63774">
        <ele>599.138</ele>
        <time>2013-03-21T17:25:44Z</time>
      </trkpt>
      <trkpt lat="45.20283" lon="4.63792">
        <ele>602.257</ele>
        <time>2013-03-21T17:25:54Z</time>
      </trkpt>
      <trkpt lat="45.20283" lon="4.63792">
        <ele>602.842</ele>
        <time>2013-03-21T17:26:07Z</time>
      </trkpt>
      <trkpt lat="45.20283" lon="4.63792">
        <ele>603.59</ele>
        <time>2013-03-21T17:26:17Z</time>
      </trkpt>
      <trkpt lat="45.20283" lon="4.63792">
        <ele>602.958</ele>
        <time>2013-03-21T17:26:27Z</time>
      </trkpt>
      <trkpt lat="45.20283" lon="4.63792">
        <ele>604.546</ele>
        <time>2013-03-21T17:26:45Z</time>
      </trkpt>
      <trkpt lat="45.20283" lon="4.63792">
        <ele>607.484</ele>
        <time>2013-03-21T17:27:01Z</time>
      </trkpt>
      <trkpt lat="45.20283" lon="4.63792">
        <ele>607.64</ele>
        <time>2013-03-21T17:27:21Z</time>
      </trkpt>
      <trkpt lat="45.20283" lon="4.63792">
        <ele>609.712</ele>
        <time>2013-03-21T17:27:34Z</time>
      </trkpt>
      <trkpt lat="45.20283" lon="4.63792">
        <ele>610.733</ele>
        <time>2013-03-21T17:27:51Z</time>
      </trkpt>
      <trkpt lat="45.20283" lon="4.63792">
        <ele>611.564</ele>
        <time>2013-03-21T17:28:04Z</time>
      </trkpt>
      <trkpt lat="45.20283" lon="4.63792">
        <ele>613.391</ele>
        <time>2013-03-21T17:28:18Z</time>
      </trkpt>
      <trkpt lat="45.20283" lon="4.63792">
        <ele>616.212</ele>
        <time>2013-03-21T17:28:31Z</time>
      </trkpt>
      <trkpt lat="45.20283" lon="4.63792">
        <ele>617.067</ele>
        <time>2013-03-21T17:28:48Z</time>
      </trkpt>
      <trkpt lat="45.20283" lon="4.63792">
        <ele>619.53</ele>
        <time>2013-03-21T17:29:09Z</time>
      </trkpt>
      <trkpt lat="45.20283" lon="4.63792">
        <ele>619.826</ele>
        <time>2013-03-21T17:29:23Z</time>
      </trkpt>
      <trkpt lat="45.20283" lon="4.63792">
        <ele>621.431</ele>
        <time>2013-03-21T17:29:40Z</time>
      </trkpt>
      <trkpt lat="45.20191" lon="4.63788">
        <ele>622.732</ele>
        <time>2013-03-21T17:29:56Z</time>
      </trkpt>
      <trkpt lat="45.20191" lon="4.63788">
        <ele>623.481</ele>
        <time>2013-03-21T17:30:08Z</time>
      </trkpt>
      <trkpt lat="45.20191" lon="4.63788">
        <ele>626.471</ele>
        <time>2013-03-21T17:30:24Z</time>
      </trkpt>
      <trkpt lat="45.20191" lon="4.63788">
        <ele>627.537</ele>
        <time>2013-03-21T17:30:34Z</time>
      </trkpt>
      <trkpt lat="45.20191" lon="4.63788">
        <ele>627.119</ele>
        <time>2013-03-21T17:31:19Z</time>
      </trkpt>
      <trkpt lat="45.20159" lon="4.63782">
        <ele>627.299</ele>
        <time>2013-03-21T17:32:11Z</time>
      </trkpt>
      <trkpt lat="45.20136" lon="4.6376">
        <ele>627.686</ele>
        <time>2013-03-21T17:32:27Z</time>
      </trkpt>
      <trkpt lat="45.20135" lon="4.63759">
        <ele>627.657</ele>
        <time>2013-03-21T17:32:28Z</time>
      </trkpt>
      <trkpt lat="45.20119" lon="4.63741">
        <ele>626.163</ele>
        <time>2013-03-21T17:32:37Z</time>
      </trkpt>
      <trkpt lat="45.20093" lon="4.63732">
        <ele>630.424</ele>
        <time>2013-03-21T17:32:51Z</time>
      </trkpt>
      <trkpt lat="45.20076" lon="4.63735">
        <ele>632.454</ele>
        <time>2013-03-21T17:33:01Z</time>
      </trkpt>
      <trkpt lat="45.20052" lon="4.63743">
        <ele>634.623</ele>
        <time>2013-03-21T17:33:16Z</time>
      </trkpt>
      <trkpt lat="45.20024" lon="4.63752">
        <ele>636.776</ele>
        <time>2013-03-21T17:33:32Z</time>
      </trkpt>
      <trkpt lat="45.20024" lon="4.63752">
        <ele>637.121</ele>
        <time>2013-03-21T17:33:34Z</time>
      </trkpt>
      <trkpt lat="45.2002" lon="4.63747">
        <ele>636.079</ele>
        <time>2013-03-21T17:33:38Z</time>
      </trkpt>
      <trkpt lat="45.20007" lon="4.6373">
        <ele>634.79</ele>
        <time>2013-03-21T17:33:48Z</time>
      </trkpt>
      <trkpt lat="45.19999" lon="4.63722">
        <ele>634.442</ele>
        <time>2013-03-21T17:33:53Z</time>
      </trkpt>
      <trkpt lat="45.19977" lon="4.63694">
        <ele>636.377</ele>
        <time>2013-03-21T17:34:08Z</time>
      </trkpt>
      <trkpt lat="45.19952" lon="4.63658">
        <ele>639.177</ele>
        <time>2013-03-21T17:34:22Z</time>
      </trkpt>
      <trkpt lat="45.19931" lon="4.63624">
        <ele>633.497</ele>
        <time>2013-03-21T17:34:36Z</time>
      </trkpt>
      <trkpt lat="45.19907" lon="4.63588">
        <ele>637.075</ele>
        <time>2013-03-21T17:34:51Z</time>
      </trkpt>
      <trkpt lat="45.19887" lon="4.6356">
        <ele>637.79</ele>
        <time>2013-03-21T17:35:04Z</time>
      </trkpt>
      <trkpt lat="45.19877" lon="4.63537">
        <ele>638.937</ele>
        <time>2013-03-21T17:35:16Z</time>
      </trkpt>
      <trkpt lat="45.19874" lon="4.63525">
        <ele>639.749</ele>
        <time>2013-03-21T17:35:24Z</time>
      </trkpt>
      <trkpt lat="45.19873" lon="4.63517">
        <ele>639.906</ele>
        <time>2013-03-21T17:35:28Z</time>
      </trkpt>
      <trkpt lat="45.19868" lon="4.63496">
        <ele>641.311</ele>
        <time>2013-03-21T17:35:39Z</time>
      </trkpt>
      <trkpt lat="45.1986" lon="4.63466">
        <ele>641.29</ele>
        <time>2013-03-21T17:35:50Z</time>
      </trkpt>
      <trkpt lat="45.19853" lon="4.63438">
        <ele>639.119</ele>
        <time>2013-03-21T17:35:57Z</time>
      </trkpt>
      <trkpt lat="45.19845" lon="4.63403">
        <ele>635.537</ele>
        <time>2013-03-21T17:36:06Z</time>
      </trkpt>
      <trkpt lat="45.1982" lon="4.63369">
        <ele>634.994</ele>
        <time>2013-03-21T17:36:18Z</time>
      </trkpt>
      <trkpt lat="45.19808" lon="4.63355">
        <ele>633.522</ele>
        <time>2013-03-21T17:36:23Z</time>
      </trkpt>
      <trkpt lat="45.19785" lon="4.63328">
        <ele>634.396</ele>
        <time>2013-03-21T17:36:35Z</time>
      </trkpt>
      <trkpt lat="45.19754" lon="4.63285">
        <ele>634.412</ele>
        <time>2013-03-21T17:36:50Z</time>
      </trkpt>
      <trkpt lat="45.19741" lon="4.63268">
        <ele>635.576</ele>
        <time>2013-03-21T17:36:59Z</time>
      </trkpt>
      <trkpt lat="45.19725" lon="4.63249">
        <ele>637.724</ele>
        <time>2013-03-21T17:37:10Z</time>
      </trkpt>
      <trkpt lat="45.19721" lon="4.63244">
        <ele>637.752</ele>
        <time>2013-03-21T17:37:12Z</time>
      </trkpt>
      <trkpt lat="45.19717" lon="4.63232">
        <ele>637.285</ele>
        <time>2013-03-21T17:37:16Z</time>
      </trkpt>
      <trkpt lat="45.19702" lon="4.63214">
        <ele>634.672</ele>
        <time>2013-03-21T17:37:30Z</time>
      </trkpt>
      <trkpt lat="45.197" lon="4.63214">
        <ele>634.232</ele>
        <time>2013-03-21T17:37:31Z</time>
      </trkpt>
      <trkpt lat="45.19681" lon="4.63201">
        <ele>631.526</ele>
        <time>2013-03-21T17:37:45Z</time>
      </trkpt>
      <trkpt lat="45.19657" lon="4.63191">
        <ele>629.244</ele>
        <time>2013-03-21T17:37:58Z</time>
      </trkpt>
      <trkpt lat="45.19645" lon="4.63172">
        <ele>626.226</ele>
        <time>2013-03-21T17:38:07Z</time>
      </trkpt>
      <trkpt lat="45.19642" lon="4.63147">
        <ele>623.17</ele>
        <time>2013-03-21T17:38:18Z</time>
      </trkpt>
      <trkpt lat="45.19641" lon="4.63145">
        <ele>620.707</ele>
        <time>2013-03-21T17:38:28Z</time>
      </trkpt>
      <trkpt lat="45.19622" lon="4.63081">
        <ele>618.107</ele>
        <time>2013-03-21T17:38:42Z</time>
      </trkpt>
      <trkpt lat="45.19614" lon="4.6305">
        <ele>616.74</ele>
        <time>2013-03-21T17:38:52Z</time>
      </trkpt>
      <trkpt lat="45.19605" lon="4.63049">
        <ele>616.431</ele>
        <time>2013-03-21T17:38:56Z</time>
      </trkpt>
      <trkpt lat="45.19578" lon="4.63073">
        <ele>616.515</ele>
        <time>2013-03-21T17:39:12Z</time>
      </trkpt>
      <trkpt lat="45.19536" lon="4.63109">
        <ele>614.11</ele>
        <time>2013-03-21T17:39:26Z</time>
      </trkpt>
      <trkpt lat="45.19511" lon="4.63126">
        <ele>610.877</ele>
        <time>2013-03-21T17:39:34Z</time>
      </trkpt>
      <trkpt lat="45.19486" lon="4.63104">
        <ele>612.553</ele>
        <time>2013-03-21T17:39:42Z</time>
      </trkpt>
      <trkpt lat="45.19462" lon="4.63093">
        <ele>614.91</ele>
        <time>2013-03-21T17:39:58Z</time>
      </trkpt>
      <trkpt lat="45.19441" lon="4.63086">
        <ele>617.993</ele>
        <time>2013-03-21T17:40:13Z</time>
      </trkpt>
      <trkpt lat="45.19419" lon="4.63079">
        <ele>619.065</ele>
        <time>2013-03-21T17:40:32Z</time>
      </trkpt>
      <trkpt lat="45.19416" lon="4.63077">
        <ele>619.504</ele>
        <time>2013-03-21T17:40:34Z</time>
      </trkpt>
      <trkpt lat="45.19389" lon="4.63054">
        <ele>620.182</ele>
        <time>2013-03-21T17:40:56Z</time>
      </trkpt>
      <trkpt lat="45.19362" lon="4.63037">
        <ele>621.569</ele>
        <time>2013-03-21T17:41:17Z</time>
      </trkpt>
      <trkpt lat="45.19336" lon="4.63009">
        <ele>621.801</ele>
        <time>2013-03-21T17:41:39Z</time>
      </trkpt>
      <trkpt lat="45.1932" lon="4.62989">
        <ele>621.416</ele>
        <time>2013-03-21T17:41:54Z</time>
      </trkpt>
      <trkpt lat="45.19314" lon="4.62979">
        <ele>622.267</ele>
        <time>2013-03-21T17:42:02Z</time>
      </trkpt>
      <trkpt lat="45.19312" lon="4.62975">
        <ele>623.68</ele>
        <time>2013-03-21T17:42:18Z</time>
      </trkpt>
      <trkpt lat="45.1929" lon="4.62948">
        <ele>625.665</ele>
        <time>2013-03-21T17:42:35Z</time>
      </trkpt>
      <trkpt lat="45.19273" lon="4.62936">
        <ele>628.789</ele>
        <time>2013-03-21T17:42:55Z</time>
      </trkpt>
      <trkpt lat="45.19273" lon="4.62936">
        <ele>630.962</ele>
        <time>2013-03-21T17:43:08Z</time>
      </trkpt>
      <trkpt lat="45.19273" lon="4.62936">
        <ele>631.449</ele>
        <time>2013-03-21T17:43:13Z</time>
      </trkpt>
      <trkpt lat="45.19233" lon="4.62908">
        <ele>633.391</ele>
        <time>2013-03-21T17:43:29Z</time>
      </trkpt>
      <trkpt lat="45.19221" lon="4.62899">
        <ele>634.386</ele>
        <time>2013-03-21T17:43:43Z</time>
      </trkpt>
      <trkpt lat="45.19211" lon="4.62892">
        <ele>636.15</ele>
        <time>2013-03-21T17:43:58Z</time>
      </trkpt>
      <trkpt lat="45.19211" lon="4.62892">
        <ele>636.678</ele>
        <time>2013-03-21T17:44:10Z</time>
      </trkpt>
      <trkpt lat="45.19211" lon="4.62892">
        <ele>639.844</ele>
        <time>2013-03-21T17:44:30Z</time>
      </trkpt>
      <trkpt lat="45.19211" lon="4.62892">
        <ele>639.578</ele>
        <time>2013-03-21T17:44:45Z</time>
      </trkpt>
      <trkpt lat="45.19211" lon="4.62892">
        <ele>641.97</ele>
        <time>2013-03-21T17:44:59Z</time>
      </trkpt>
      <trkpt lat="45.19211" lon="4.62892">
        <ele>641.993</ele>
        <time>2013-03-21T17:45:00Z</time>
      </trkpt>
      <trkpt lat="45.19178" lon="4.62881">
        <ele>640.577</ele>
        <time>2013-03-21T17:45:11Z</time>
      </trkpt>
      <trkpt lat="45.19178" lon="4.62881">
        <ele>641.443</ele>
        <time>2013-03-21T17:45:29Z</time>
      </trkpt>
      <trkpt lat="45.19178" lon="4.62881">
        <ele>643.412</ele>
        <time>2013-03-21T17:45:48Z</time>
      </trkpt>
      <trkpt lat="45.19178" lon="4.62881">
        <ele>644.605</ele>
        <time>2013-03-21T17:46:01Z</time>
      </trkpt>
      <trkpt lat="45.19178" lon="4.62881">
        <ele>646.808</ele>
        <time>2013-03-21T17:46:15Z</time>
      </trkpt>
      <trkpt lat="45.19178" lon="4.62881">
        <ele>648.24</ele>
        <time>2013-03-21T17:46:30Z</time>
      </trkpt>
      <trkpt lat="45.19178" lon="4.62881">
        <ele>649.898</ele>
        <time>2013-03-21T17:46:42Z</time>
      </trkpt>
      <trkpt lat="45.19178" lon="4.62881">
        <ele>652.47</ele>
        <time>2013-03-21T17:46:55Z</time>
      </trkpt>
      <trkpt lat="45.19178" lon="4.62881">
        <ele>653.77</ele>
        <time>2013-03-21T17:47:09Z</time>
      </trkpt>
      <trkpt lat="45.19178" lon="4.62881">
        <ele>653.852</ele>
        <time>2013-03-21T17:47:27Z</time>
      </trkpt>
      <trkpt lat="45.19178" lon="4.62881">
        <ele>652.631</ele>
        <time>2013-03-21T17:47:42Z</time>
      </trkpt>
      <trkpt lat="45.19178" lon="4.62881">
        <ele>652.911</ele>
        <time>2013-03-21T17:48:01Z</time>
      </trkpt>
      <trkpt lat="45.19089" lon="4.62848">
        <ele>657.219</ele>
        <time>2013-03-21T17:48:19Z</time>
      </trkpt>
      <trkpt lat="45.19089" lon="4.62848">
        <ele>660.78</ele>
        <time>2013-03-21T17:48:36Z</time>
      </trkpt>
      <trkpt lat="45.19089" lon="4.62848">
        <ele>660.22</ele>
        <time>2013-03-21T17:48:49Z</time>
      </trkpt>
      <trkpt lat="45.19089" lon="4.62848">
        <ele>658.966</ele>
        <time>2013-03-21T17:49:08Z</time>
      </trkpt>
      <trkpt lat="45.19089" lon="4.62848">
        <ele>663.536</ele>
        <time>2013-03-21T17:49:25Z</time>
      </trkpt>
      <trkpt lat="45.19089" lon="4.62848">
        <ele>670.038</ele>
        <time>2013-03-21T17:49:41Z</time>
      </trkpt>
      <trkpt lat="45.19089" lon="4.62848">
        <ele>672.479</ele>
        <time>2013-03-21T17:49:56Z</time>
      </trkpt>
      <trkpt lat="45.19003" lon="4.62842">
        <ele>674.637</ele>
        <time>2013-03-21T17:50:11Z</time>
      </trkpt>
      <trkpt lat="45.19003" lon="4.62842">
        <ele>674.876</ele>
        <time>2013-03-21T17:50:23Z</time>
      </trkpt>
      <trkpt lat="45.19003" lon="4.62842">
        <ele>674.021</ele>
        <time>2013-03-21T17:50:39Z</time>
      </trkpt>
      <trkpt lat="45.19003" lon="4.62842">
        <ele>674.604</ele>
        <time>2013-03-21T17:50:57Z</time>
      </trkpt>
      <trkpt lat="45.19003" lon="4.62842">
        <ele>674.745</ele>
        <time>2013-03-21T17:51:13Z</time>
      </trkpt>
      <trkpt lat="45.19003" lon="4.62842">
        <ele>678.417</ele>
        <time>2013-03-21T17:51:27Z</time>
      </trkpt>
      <trkpt lat="45.19003" lon="4.62842">
        <ele>679.238</ele>
        <time>2013-03-21T17:51:43Z</time>
      </trkpt>
      <trkpt lat="45.19003" lon="4.62842">
        <ele>678.683</ele>
        <time>2013-03-21T17:51:57Z</time>
      </trkpt>
      <trkpt lat="45.19003" lon="4.62842">
        <ele>679.22</ele>
        <time>2013-03-21T17:52:18Z</time>
      </trkpt>
      <trkpt lat="45.19003" lon="4.62842">
        <ele>679.738</ele>
        <time>2013-03-21T17:52:29Z</time>
      </trkpt>
      <trkpt lat="45.19003" lon="4.62842">
        <ele>680.599</ele>
        <time>2013-03-21T17:52:43Z</time>
      </trkpt>
      <trkpt lat="45.18911" lon="4.62826">
        <ele>682.134</ele>
        <time>2013-03-21T17:52:49Z</time>
      </trkpt>
      <trkpt lat="45.18897" lon="4.6282">
        <ele>683.882</ele>
        <time>2013-03-21T17:53:03Z</time>
      </trkpt>
      <trkpt lat="45.18897" lon="4.6282">
        <ele>683.928</ele>
        <time>2013-03-21T17:53:06Z</time>
      </trkpt>
      <trkpt lat="45.18891" lon="4.62815">
        <ele>683.543</ele>
        <time>2013-03-21T17:53:10Z</time>
      </trkpt>
      <trkpt lat="45.18891" lon="4.62815">
        <ele>691.13</ele>
        <time>2013-03-21T17:53:28Z</time>
      </trkpt>
      <trkpt lat="45.18871" lon="4.62804">
        <ele>689.12</ele>
        <time>2013-03-21T17:53:38Z</time>
      </trkpt>
      <trkpt lat="45.18846" lon="4.62799">
        <ele>689.246</ele>
        <time>2013-03-21T17:53:43Z</time>
      </trkpt>
      <trkpt lat="45.1882" lon="4.62809">
        <ele>682.47</ele>
        <time>2013-03-21T17:53:56Z</time>
      </trkpt>
      <trkpt lat="45.18787" lon="4.62829">
        <ele>678.038</ele>
        <time>2013-03-21T17:54:09Z</time>
      </trkpt>
      <trkpt lat="45.18759" lon="4.62845">
        <ele>674.627</ele>
        <time>2013-03-21T17:54:19Z</time>
      </trkpt>
      <trkpt lat="45.18734" lon="4.62861">
        <ele>677.045</ele>
        <time>2013-03-21T17:54:28Z</time>
      </trkpt>
      <trkpt lat="45.18703" lon="4.62852">
        <ele>673.488</ele>
        <time>2013-03-21T17:54:38Z</time>
      </trkpt>
      <trkpt lat="45.1867" lon="4.62834">
        <ele>670.45</ele>
        <time>2013-03-21T17:54:48Z</time>
      </trkpt>
      <trkpt lat="45.18667" lon="4.62833">
        <ele>670.351</ele>
        <time>2013-03-21T17:54:49Z</time>
      </trkpt>
      <trkpt lat="45.18635" lon="4.62814">
        <ele>667.068</ele>
        <time>2013-03-21T17:54:59Z</time>
      </trkpt>
      <trkpt lat="45.18592" lon="4.62799">
        <ele>663.089</ele>
        <time>2013-03-21T17:55:10Z</time>
      </trkpt>
      <trkpt lat="45.18579" lon="4.62794">
        <ele>662.46</ele>
        <time>2013-03-21T17:55:13Z</time>
      </trkpt>
      <trkpt lat="45.18535" lon="4.62784">
        <ele>659.396</ele>
        <time>2013-03-21T17:55:24Z</time>
      </trkpt>
      <trkpt lat="45.18521" lon="4.62781">
        <ele>657.767</ele>
        <time>2013-03-21T17:55:28Z</time>
      </trkpt>
      <trkpt lat="45.18478" lon="4.62773">
        <ele>654.183</ele>
        <time>2013-03-21T17:55:38Z</time>
      </trkpt>
      <trkpt lat="45.1847" lon="4.62774">
        <ele>652.771</ele>
        <time>2013-03-21T17:55:40Z</time>
      </trkpt>
      <trkpt lat="45.18448" lon="4.62781">
        <ele>649.776</ele>
        <time>2013-03-21T17:55:45Z</time>
      </trkpt>
      <trkpt lat="45.18411" lon="4.628">
        <ele>646.479</ele>
        <time>2013-03-21T17:55:56Z</time>
      </trkpt>
      <trkpt lat="45.18376" lon="4.6281">
        <ele>641.692</ele>
        <time>2013-03-21T17:56:08Z</time>
      </trkpt>
      <trkpt lat="45.1834" lon="4.62796">
        <ele>637.673</ele>
        <time>2013-03-21T17:56:18Z</time>
      </trkpt>
      <trkpt lat="45.18313" lon="4.62807">
        <ele>634.779</ele>
        <time>2013-03-21T17:56:27Z</time>
      </trkpt>
      <trkpt lat="45.18304" lon="4.62817">
        <ele>632.76</ele>
        <time>2013-03-21T17:56:30Z</time>
      </trkpt>
      <trkpt lat="45.18287" lon="4.62818">
        <ele>630.692</ele>
        <time>2013-03-21T17:56:35Z</time>
      </trkpt>
      <trkpt lat="45.18256" lon="4.62815">
        <ele>628.264</ele>
        <time>2013-03-21T17:56:45Z</time>
      </trkpt>
      <trkpt lat="45.18225" lon="4.62798">
        <ele>625.708</ele>
        <time>2013-03-21T17:56:55Z</time>
      </trkpt>
      <trkpt lat="45.18185" lon="4.62767">
        <ele>622.62</ele>
        <time>2013-03-21T17:57:05Z</time>
      </trkpt>
      <trkpt lat="45.18155" lon="4.62735">
        <ele>621.304</ele>
        <time>2013-03-21T17:57:17Z</time>
      </trkpt>
      <trkpt lat="45.18151" lon="4.62731">
        <ele>621.137</ele>
        <time>2013-03-21T17:57:18Z</time>
      </trkpt>
      <trkpt lat="45.18123" lon="4.62709">
        <ele>616.664</ele>
        <time>2013-03-21T17:57:28Z</time>
      </trkpt>
      <trkpt lat="45.18094" lon="4.62698">
        <ele>613.108</ele>
        <time>2013-03-21T17:57:40Z</time>
      </trkpt>
      <trkpt lat="45.18047" lon="4.62688">
        <ele>609.539</ele>
        <time>2013-03-21T17:57:53Z</time>
      </trkpt>
      <trkpt lat="45.18005" lon="4.62681">
        <ele>604.097</ele>
        <time>2013-03-21T17:58:05Z</time>
      </trkpt>
      <trkpt lat="45.17971" lon="4.62673">
        <ele>599.794</ele>
        <time>2013-03-21T17:58:15Z</time>
      </trkpt>
      <trkpt lat="45.17935" lon="4.62669">
        <ele>595.413</ele>
        <time>2013-03-21T17:58:26Z</time>
      </trkpt>
      <trkpt lat="45.17906" lon="4.62676">
        <ele>592.786</ele>
        <time>2013-03-21T17:58:37Z</time>
      </trkpt>
      <trkpt lat="45.17872" lon="4.62692">
        <ele>589.182</ele>
        <time>2013-03-21T17:58:48Z</time>
      </trkpt>
      <trkpt lat="45.17839" lon="4.6271">
        <ele>584.48</ele>
        <time>2013-03-21T17:59:01Z</time>
      </trkpt>
      <trkpt lat="45.17827" lon="4.62736">
        <ele>581.184</ele>
        <time>2013-03-21T17:59:11Z</time>
      </trkpt>
      <trkpt lat="45.17819" lon="4.62793">
        <ele>574.317</ele>
        <time>2013-03-21T17:59:22Z</time>
      </trkpt>
      <trkpt lat="45.17799" lon="4.62875">
        <ele>568.615</ele>
        <time>2013-03-21T17:59:35Z</time>
      </trkpt>
      <trkpt lat="45.17795" lon="4.62899">
        <ele>567.528</ele>
        <time>2013-03-21T17:59:39Z</time>
      </trkpt>
      <trkpt lat="45.17774" lon="4.6295">
        <ele>568.351</ele>
        <time>2013-03-21T17:59:51Z</time>
      </trkpt>
      <trkpt lat="45.17766" lon="4.6297">
        <ele>569.743</ele>
        <time>2013-03-21T18:00:02Z</time>
      </trkpt>
      <trkpt lat="45.17753" lon="4.63007">
        <ele>572.101</ele>
        <time>2013-03-21T18:00:16Z</time>
      </trkpt>
      <trkpt lat="45.17741" lon="4.63057">
        <ele>572.64</ele>
        <time>2013-03-21T18:00:33Z</time>
      </trkpt>
      <trkpt lat="45.1773" lon="4.63119">
        <ele>571.743</ele>
        <time>2013-03-21T18:00:50Z</time>
      </trkpt>
      <trkpt lat="45.17721" lon="4.63179">
        <ele>571.271</ele>
        <time>2013-03-21T18:01:06Z</time>
      </trkpt>
      <trkpt lat="45.17705" lon="4.63249">
        <ele>572.387</ele>
        <time>2013-03-21T18:01:25Z</time>
      </trkpt>
      <trkpt lat="45.17691" lon="4.63296">
        <ele>573.302</ele>
        <time>2013-03-21T18:01:40Z</time>
      </trkpt>
      <trkpt lat="45.17706" lon="4.63348">
        <ele>574.823</ele>
        <time>2013-03-21T18:01:57Z</time>
      </trkpt>
      <trkpt lat="45.17722" lon="4.63397">
        <ele>574.039</ele>
        <time>2013-03-21T18:02:15Z</time>
      </trkpt>
      <trkpt lat="45.17735" lon="4.63428">
        <ele>573.794</ele>
        <time>2013-03-21T18:02:26Z</time>
      </trkpt>
      <trkpt lat="45.17761" lon="4.6347">
        <ele>572.887</ele>
        <time>2013-03-21T18:02:40Z</time>
      </trkpt>
      <trkpt lat="45.17785" lon="4.63515">
        <ele>572.612</ele>
        <time>2013-03-21T18:02:51Z</time>
      </trkpt>
      <trkpt lat="45.17809" lon="4.63565">
        <ele>573.962</ele>
        <time>2013-03-21T18:03:05Z</time>
      </trkpt>
      <trkpt lat="45.17826" lon="4.63607">
        <ele>575.469</ele>
        <time>2013-03-21T18:03:18Z</time>
      </trkpt>
      <trkpt lat="45.17844" lon="4.63647">
        <ele>575.741</ele>
        <time>2013-03-21T18:03:33Z</time>
      </trkpt>
      <trkpt lat="45.17874" lon="4.63702">
        <ele>576.7</ele>
        <time>2013-03-21T18:03:51Z</time>
      </trkpt>
      <trkpt lat="45.17892" lon="4.63745">
        <ele>575.342</ele>
        <time>2013-03-21T18:04:03Z</time>
      </trkpt>
      <trkpt lat="45.17899" lon="4.63769">
        <ele>574.316</ele>
        <time>2013-03-21T18:04:07Z</time>
      </trkpt>
      <trkpt lat="45.17912" lon="4.63849">
        <ele>571.158</ele>
        <time>2013-03-21T18:04:19Z</time>
      </trkpt>
      <trkpt lat="45.17918" lon="4.63868">
        <ele>569.809</ele>
        <time>2013-03-21T18:04:22Z</time>
      </trkpt>
      <trkpt lat="45.17946" lon="4.63908">
        <ele>567.347</ele>
        <time>2013-03-21T18:04:32Z</time>
      </trkpt>
      <trkpt lat="45.17965" lon="4.63942">
        <ele>564.709</ele>
        <time>2013-03-21T18:04:41Z</time>
      </trkpt>
      <trkpt lat="45.17967" lon="4.63952">
        <ele>564.086</ele>
        <time>2013-03-21T18:04:43Z</time>
      </trkpt>
      <trkpt lat="45.17972" lon="4.6397">
        <ele>558.907</ele>
        <time>2013-03-21T18:04:47Z</time>
      </trkpt>
      <trkpt lat="45.17978" lon="4.63997">
        <ele>554.794</ele>
        <time>2013-03-21T18:04:53Z</time>
      </trkpt>
      <trkpt lat="45.17979" lon="4.64041">
        <ele>550.25</ele>
        <time>2013-03-21T18:05:02Z</time>
      </trkpt>
      <trkpt lat="45.17986" lon="4.64071">
        <ele>546.318</ele>
        <time>2013-03-21T18:05:07Z</time>
      </trkpt>
      <trkpt lat="45.17995" lon="4.64091">
        <ele>542.988</ele>
        <time>2013-03-21T18:05:11Z</time>
      </trkpt>
      <trkpt lat="45.17994" lon="4.64132">
        <ele>539.337</ele>
        <time>2013-03-21T18:05:18Z</time>
      </trkpt>
      <trkpt lat="45.17975" lon="4.64206">
        <ele>534.284</ele>
        <time>2013-03-21T18:05:30Z</time>
      </trkpt>
      <trkpt lat="45.17963" lon="4.6426">
        <ele>531.172</ele>
        <time>2013-03-21T18:05:42Z</time>
      </trkpt>
      <trkpt lat="45.17962" lon="4.64262">
        <ele>530.972</ele>
        <time>2013-03-21T18:05:43Z</time>
      </trkpt>
      <trkpt lat="45.17972" lon="4.64265">
        <ele>529.826</ele>
        <time>2013-03-21T18:05:51Z</time>
      </trkpt>
      <trkpt lat="45.18002" lon="4.64242">
        <ele>531.073</ele>
        <time>2013-03-21T18:06:06Z</time>
      </trkpt>
      <trkpt lat="45.1802" lon="4.64219">
        <ele>531.231</ele>
        <time>2013-03-21T18:06:17Z</time>
      </trkpt>
      <trkpt lat="45.1804" lon="4.64189">
        <ele>530.474</ele>
        <time>2013-03-21T18:06:30Z</time>
      </trkpt>
      <trkpt lat="45.18054" lon="4.64173">
        <ele>529.04</ele>
        <time>2013-03-21T18:06:39Z</time>
      </trkpt>
      <trkpt lat="45.18066" lon="4.64154">
        <ele>529.028</ele>
        <time>2013-03-21T18:06:47Z</time>
      </trkpt>
      <trkpt lat="45.18069" lon="4.64148">
        <ele>528.12</ele>
        <time>2013-03-21T18:06:50Z</time>
      </trkpt>
      <trkpt lat="45.18076" lon="4.6412">
        <ele>526.135</ele>
        <time>2013-03-21T18:07:01Z</time>
      </trkpt>
      <trkpt lat="45.18079" lon="4.64087">
        <ele>521.938</ele>
        <time>2013-03-21T18:07:10Z</time>
      </trkpt>
      <trkpt lat="45.18082" lon="4.6407">
        <ele>519.511</ele>
        <time>2013-03-21T18:07:15Z</time>
      </trkpt>
      <trkpt lat="45.18083" lon="4.64063">
        <ele>519.408</ele>
        <time>2013-03-21T18:07:17Z</time>
      </trkpt>
      <trkpt lat="45.18097" lon="4.64038">
        <ele>524.711</ele>
        <time>2013-03-21T18:07:27Z</time>
      </trkpt>
      <trkpt lat="45.18113" lon="4.64017">
        <ele>520.342</ele>
        <time>2013-03-21T18:07:37Z</time>
      </trkpt>
      <trkpt lat="45.1814" lon="4.63995">
        <ele>516.728</ele>
        <time>2013-03-21T18:07:49Z</time>
      </trkpt>
      <trkpt lat="45.1817" lon="4.63968">
        <ele>513.062</ele>
        <time>2013-03-21T18:08:02Z</time>
      </trkpt>
      <trkpt lat="45.18194" lon="4.63944">
        <ele>508.297</ele>
        <time>2013-03-21T18:08:15Z</time>
      </trkpt>
      <trkpt lat="45.18208" lon="4.63918">
        <ele>503.89</ele>
        <time>2013-03-21T18:08:26Z</time>
      </trkpt>
      <trkpt lat="45.18237" lon="4.63897">
        <ele>499.518</ele>
        <time>2013-03-21T18:08:40Z</time>
      </trkpt>
      <trkpt lat="45.18247" lon="4.63891">
        <ele>497.613</ele>
        <time>2013-03-21T18:08:52Z</time>
      </trkpt>
      <trkpt lat="45.18247" lon="4.63891">
        <ele>497.614</ele>
        <time>2013-03-21T18:08:55Z</time>
      </trkpt>
      <trkpt lat="45.18277" lon="4.63872">
        <ele>493.538</ele>
        <time>2013-03-21T18:09:05Z</time>
      </trkpt>
      <trkpt lat="45.18309" lon="4.6385">
        <ele>489.295</ele>
        <time>2013-03-21T18:09:15Z</time>
      </trkpt>
      <trkpt lat="45.18331" lon="4.63844">
        <ele>487.644</ele>
        <time>2013-03-21T18:09:21Z</time>
      </trkpt>
      <trkpt lat="45.18343" lon="4.63842">
        <ele>486.282</ele>
        <time>2013-03-21T18:09:24Z</time>
      </trkpt>
      <trkpt lat="45.18386" lon="4.63819">
        <ele>484.737</ele>
        <time>2013-03-21T18:09:36Z</time>
      </trkpt>
      <trkpt lat="45.18407" lon="4.63793">
        <ele>486.12</ele>
        <time>2013-03-21T18:09:47Z</time>
      </trkpt>
      <trkpt lat="45.18427" lon="4.63759">
        <ele>488.87</ele>
        <time>2013-03-21T18:10:02Z</time>
      </trkpt>
      <trkpt lat="45.18441" lon="4.63772">
        <ele>488.124</ele>
        <time>2013-03-21T18:10:08Z</time>
      </trkpt>
      <trkpt lat="45.18465" lon="4.63849">
        <ele>484.296</ele>
        <time>2013-03-21T18:10:22Z</time>
      </trkpt>
      <trkpt lat="45.18503" lon="4.63942">
        <ele>479.032</ele>
        <time>2013-03-21T18:10:36Z</time>
      </trkpt>
      <trkpt lat="45.18519" lon="4.63985">
        <ele>477.248</ele>
        <time>2013-03-21T18:10:44Z</time>
      </trkpt>
      <trkpt lat="45.18519" lon="4.63986">
        <ele>477.238</ele>
        <time>2013-03-21T18:10:45Z</time>
      </trkpt>
      <trkpt lat="45.18494" lon="4.64007">
        <ele>477.606</ele>
        <time>2013-03-21T18:10:54Z</time>
      </trkpt>
      <trkpt lat="45.18466" lon="4.64057">
        <ele>479.46</ele>
        <time>2013-03-21T18:11:06Z</time>
      </trkpt>
      <trkpt lat="45.18436" lon="4.641">
        <ele>479.546</ele>
        <time>2013-03-21T18:11:21Z</time>
      </trkpt>
      <trkpt lat="45.18398" lon="4.64145">
        <ele>477.801</ele>
        <time>2013-03-21T18:11:37Z</time>
      </trkpt>
      <trkpt lat="45.18382" lon="4.64164">
        <ele>477.354</ele>
        <time>2013-03-21T18:11:44Z</time>
      </trkpt>
      <trkpt lat="45.18375" lon="4.64172">
        <ele>477.78</ele>
        <time>2013-03-21T18:11:49Z</time>
      </trkpt>
      <trkpt lat="45.1837" lon="4.64178">
        <ele>479.033</ele>
        <time>2013-03-21T18:12:01Z</time>
      </trkpt>
      <trkpt lat="45.1837" lon="4.64178">
        <ele>479.375</ele>
        <time>2013-03-21T18:12:30Z</time>
      </trkpt>
      <trkpt lat="45.18371" lon="4.64176">
        <ele>478.691</ele>
        <time>2013-03-21T18:12:34Z</time>
      </trkpt>
      <trkpt lat="45.18374" lon="4.6417">
        <ele>476.122</ele>
        <time>2013-03-21T18:12:42Z</time>
      </trkpt>
      <trkpt lat="45.1837" lon="4.64176">
        <ele>476.003</ele>
        <time>2013-03-21T18:12:44Z</time>
      </trkpt>
      <trkpt lat="45.18335" lon="4.6422">
        <ele>475.133</ele>
        <time>2013-03-21T18:12:56Z</time>
      </trkpt>
      <trkpt lat="45.18332" lon="4.64261">
        <ele>475.566</ele>
        <time>2013-03-21T18:13:04Z</time>
      </trkpt>
      <trkpt lat="45.18334" lon="4.64265">
        <ele>475.696</ele>
        <time>2013-03-21T18:13:05Z</time>
      </trkpt>
      <trkpt lat="45.18336" lon="4.64271">
        <ele>474.943</ele>
        <time>2013-03-21T18:13:10Z</time>
      </trkpt>
      <trkpt lat="45.18345" lon="4.64298">
        <ele>474.256</ele>
        <time>2013-03-21T18:13:12Z</time>
      </trkpt>
      <trkpt lat="45.18336" lon="4.64356">
        <ele>471.242</ele>
        <time>2013-03-21T18:13:19Z</time>
      </trkpt>
      <trkpt lat="45.18325" lon="4.64371">
        <ele>470.055</ele>
        <time>2013-03-21T18:13:21Z</time>
      </trkpt>
      <trkpt lat="45.18321" lon="4.64416">
        <ele>466.878</ele>
        <time>2013-03-21T18:13:27Z</time>
      </trkpt>
      <trkpt lat="45.18333" lon="4.6443">
        <ele>465.764</ele>
        <time>2013-03-21T18:13:29Z</time>
      </trkpt>
      <trkpt lat="45.18365" lon="4.64497">
        <ele>460.976</ele>
        <time>2013-03-21T18:13:36Z</time>
      </trkpt>
      <trkpt lat="45.18385" lon="4.64518">
        <ele>458.409</ele>
        <time>2013-03-21T18:13:40Z</time>
      </trkpt>
      <trkpt lat="45.18484" lon="4.64547">
        <ele>450.177</ele>
        <time>2013-03-21T18:13:51Z</time>
      </trkpt>
      <trkpt lat="45.18631" lon="4.64586">
        <ele>441.662</ele>
        <time>2013-03-21T18:14:06Z</time>
      </trkpt>
      <trkpt lat="45.18732" lon="4.64615">
        <ele>440.045</ele>
        <time>2013-03-21T18:14:18Z</time>
      </trkpt>
      <trkpt lat="45.18768" lon="4.64623">
        <ele>438.653</ele>
        <time>2013-03-21T18:14:23Z</time>
      </trkpt>
      <trkpt lat="45.18808" lon="4.64614">
        <ele>436.806</ele>
        <time>2013-03-21T18:14:28Z</time>
      </trkpt>
      <trkpt lat="45.18863" lon="4.6459">
        <ele>435.178</ele>
        <time>2013-03-21T18:14:35Z</time>
      </trkpt>
      <trkpt lat="45.18892" lon="4.64593">
        <ele>436.653</ele>
        <time>2013-03-21T18:14:39Z</time>
      </trkpt>
      <trkpt lat="45.18964" lon="4.64628">
        <ele>440.965</ele>
        <time>2013-03-21T18:14:53Z</time>
      </trkpt>
      <trkpt lat="45.18987" lon="4.64638">
        <ele>442.63</ele>
        <time>2013-03-21T18:15:04Z</time>
      </trkpt>
      <trkpt lat="45.19043" lon="4.64666">
        <ele>443.312</ele>
        <time>2013-03-21T18:15:16Z</time>
      </trkpt>
      <trkpt lat="45.19103" lon="4.64704">
        <ele>444.563</ele>
        <time>2013-03-21T18:15:34Z</time>
      </trkpt>
      <trkpt lat="45.19156" lon="4.64744">
        <ele>445.386</ele>
        <time>2013-03-21T18:15:51Z</time>
      </trkpt>
      <trkpt lat="45.19217" lon="4.64784">
        <ele>446.747</ele>
        <time>2013-03-21T18:16:08Z</time>
      </trkpt>
      <trkpt lat="45.19283" lon="4.64822">
        <ele>447.791</ele>
        <time>2013-03-21T18:16:27Z</time>
      </trkpt>
      <trkpt lat="45.19325" lon="4.6483">
        <ele>448.274</ele>
        <time>2013-03-21T18:16:40Z</time>
      </trkpt>
      <trkpt lat="45.19344" lon="4.64834">
        <ele>448.497</ele>
        <time>2013-03-21T18:16:48Z</time>
      </trkpt>
      <trkpt lat="45.19348" lon="4.64847">
        <ele>448.241</ele>
        <time>2013-03-21T18:16:54Z</time>
      </trkpt>
      <trkpt lat="45.19344" lon="4.64861">
        <ele>447.089</ele>
        <time>2013-03-21T18:16:59Z</time>
      </trkpt>
      <trkpt lat="45.19338" lon="4.64861">
        <ele>447.138</ele>
        <time>2013-03-21T18:17:05Z</time>
      </trkpt>
      <trkpt lat="45.19338" lon="4.64858">
        <ele>446.32</ele>
        <time>2013-03-21T18:17:15Z</time>
      </trkpt>
    </trkseg>
  </trk>
</gpx>